AirNav   Pilot Hours Calculator
 
 941 users online  

FD66 Cape Coral Hospital Heliport
Cape Coral, Florida, USA

GOING TO CAPE CORAL?


FAA INFORMATION EFFECTIVE 05 DECEMBER 2019

Location

FAA Identifier: FD66
Lat/Long: 26-38-18.2620N 081-56-29.3160W
26-38.304367N 081-56.488600W
26.6384061,-81.9414767
(estimated)
Elevation: 11 ft. / 3.4 m (surveyed)
Variation: 02W (1985)
Time zone: UTC -5 (UTC -4 during Daylight Saving Time)
Zip code: 33990

Heliport Operations

Heliport use: Private use, MEDICAL.
Activation date: 07/1986
Control tower: no
ARTCC: MIAMI CENTER
FSS: MIAMI FLIGHT SERVICE STATION
Attendance: UNATNDD
Segmented circle: no

Heliport Communications

WX ASOS at FMY (5 nm SE): 123.725 (239-936-2318)
WX ASOS at RSW (12 nm SE): PHONE 239-561-0966
WX ASOS at PGD (17 nm N): 135.675 (941-639-0076)

Nearby radio navigation aids

VOR radial/distance  VOR name  Freq  Var
RSWr308/11.0LEE COUNTY VORTAC111.8002W
PGDr177/(16.9)PUNTA GORDA VOR110.2006W
CYYr346/30.4CYPRESS VOR/DME108.6003W
LBVr248/31.6LA BELLE VORTAC110.4001E

 
NDB name  Hdg/Dist  Freq  Var  ID
CALOO007/7.434103WFM ..-. --

Heliport Services

Runway Information

Helipad H1

Dimensions: 50 x 50 ft. / 15 x 15 m
Surface: concrete
Latitude: 26-38.319000N
Longitude: 081-56.482000W
Elevation: 11.0 ft.
Traffic pattern: leftleft

Heliport Ownership and Management from official FAA records

Ownership: Privately-owned
Owner: CAPE CORAL HOSPITAL
636 DEL PRADO BLVD
CAPE CORAL, FL 33990
Phone (239) 424-2360
Manager: ROD ALLEN
636 DEL PRADO BLVD
CAPE CORAL, FL 33990
Phone (239) 424-3676
SYSTEM DIRECTOR

Additional Remarks

A52-H1 PLINES LCTD TO THE SOUTH & WEST OF HELIPORT HAVE BEEN MARKED WITH ORANGE BALLS.
FOR CD CTC FORT MYERS APCH AT 239-768-1377, WHEN APCH CLSD CTC MIAMI ARTCC AT 305-716-1731.

Instrument Procedures

There are no published instrument procedures at FD66.

Some nearby airports with instrument procedures:

KFMY - Page Field Airport (5 nm SE)
KRSW - Southwest Florida International Airport (12 nm SE)
KPGD - Punta Gorda Airport (17 nm N)
X14 - La Belle Municipal Airport (28 nm E)
KAPF - Naples Municipal Airport (30 nm S)
 
Loc | Ops | Rwys | IFR | FBO | Links
Com | Nav | Svcs | Stats | Notes

Reliance Aviation
AirBoss

 
Area around FD66 (Cape Coral Hospital Heliport)
 
Road maps at: MapQuest Bing Google
 
Aerial photo
No photo
 
Sectional chart

 
Airport distance calculator
Flying to Cape Coral Hospital Heliport? Find the distance to fly.

From to FD66

Sunrise and sunset
Times for 12-Dec-2019
 Local
(UTC-5)
 Zulu
(UTC)
Morning civil twilight06:4211:42
Sunrise07:0812:08
Sunset17:3522:35
Evening civil twilight18:0123:01

Current date and time
Zulu (UTC)  13-Dec-2019 01:29:24
Local (UTC-5)  12-Dec-2019 20:29:24
 
METAR
KFMY 
5nm SE 
130053Z 08005KT 10SM OVC060 23/21 A3011 RMK AO2 RAE38 SLP197 P0015 T02280211
KRSW 
11nm SE 
130058Z 08008KT 10SM FEW032 SCT043 OVC070 22/22 A3012 RMK AO2 T02170217
KPGD 
17nm N 
130117Z 09010KT 10SM BKN011 OVC050 22/21 A3014 RMK AO2 T02170206
TAF
KFMY 
5nm SE 
130007Z 1300/1324 VRB04KT P6SM VCSH SCT025 OVC100 TEMPO 1300/1301 2SM SHRA BKN025 FM130400 VRB03KT P6SM BKN025 FM130900 VRB03KT P6SM SCT025 BKN060 FM131600 17007KT P6SM SCT025 OVC100
KRSW 
11nm SE 
130008Z 1300/1324 VRB04KT P6SM VCSH SCT025 OVC100 TEMPO 1300/1301 -RA BKN007 FM130400 VRB03KT P6SM BKN025 FM130900 VRB03KT P6SM SCT025 BKN060 FM131600 17007KT P6SM SCT025 OVC100
KPGD 
17nm N 
121723Z 1218/1318 08014KT P6SM VCSH SCT020 OVC050 TEMPO 1218/1222 BKN020 FM130300 VRB04KT P6SM SCT025 OVC100 FM131500 17008KT P6SM OVC100
NOTAMs
Click for the latest NOTAMs
NOTAMs are issued by the DoD/FAA and will open in a separate window not controlled by AirNav.

 

 
 

Would you like to see your business listed on this page?

 If your business provides an interesting product or service to pilots, flight crews, aircraft, or users of the Cape Coral Hospital Heliport, you should consider listing it here.  To start the listing process, click on the button below
 
Add a business
 

Other Pages about Cape Coral Hospital Heliport

Update a link
 
Copyright © AirNav, LLC. All rights reserved. Privacy Policy  Contact